Skip Navigation Links
NOAA logo - Click to go to the NOAA homepage
NOAA's National Weather Service
Alaska Aviation Weather Unit
  NWS logo - Click to go to the NWS homepage
Left Navbar Graphic     19 AKDT = 03 GMT

   
NOAA is celebrating 200 years of science, service, and stewardship. Visit the NOAA 200th celebration Web site to learn more.
USA.gov is the U.S. Government's official Web portal to all Federal, state and local government Web resources and services.
Facebook
NWS on Facebook

Important Change Regarding the AAWU Web Presence

 

Over the last several months, the AAWU has been working to navigate its webpages to a nationally supported server. Security, as well as other needs, have necessitated the change.  In the process, we have made an effort to enhance the functionality of our website, as well as some of our products. As of June 20, 2017, aawu.arh.noaa.gov will be discontinued. The new AAWU web address is weather.gov/aawu. It is now live and will run in-parallel with the old site until it is discontinued. Please send any feedback or questions regarding the new webpages to nws.ar.aawu.webauthors@noaa.gov.  Thank you for your patience during this time of transition.
AAWU Home :: Display TAF Add Bookmark
TAF PAUN 242339Z 2500/2524 24015KT P6SM -SHRA SCT035 BKN050 OVC100
     FM250900 21015KT P6SM -SHRA SCT015 BKN025 OVC035
     FM251500 18015KT P6SM -SHRA SCT015 BKN025 OVC035=
METAR PAUN 242156Z AUTO 23007KT 10SM FEW025 BKN044 OVC050 04/03
 A2958 RMK AO2 RAE54 SLP022 P0001 T00440028=

METAR PAUN 242256Z AUTO 25013KT 10SM BKN060 BKN090 BKN110 04/02 A2960
     RMK AO2 SLP028 T00440022=

METAR PAUN 242356Z AUTO 25007KT 10SM BKN040 OVC049 04/02 A2963 RMK
 AO2 SLP037 60005 T00440022 10061 20039 53015=

METAR PAUN 250056Z AUTO 24008KT 10SM FEW034 OVC045 04/02 A2964 RMK AO2
     SLP041 T00440022=

SPECI PAUN 250137Z AUTO 18009KT 10SM -RA BKN014 BKN028 OVC055 04/02
     A2965 RMK AO2 RAB34 P0000=

METAR PAUN 250156Z AUTO 22005KT 10SM -RA BKN012 BKN018 OVC033 04/02
     A2965 RMK AO2 RAB34 SLP044 P0000 T00390022=

SPECI PAUN 250204Z AUTO 22007KT 10SM FEW007 BKN012 OVC041 04/02 A2965
     RMK AO2 RAE01 P0000=

SPECI PAUN 250214Z AUTO 20005KT 10SM FEW007 SCT014 OVC041 04/02 A2966
     RMK AO2 RAE01 P0000=

METAR PAUN 250256Z AUTO 17005KT 10SM FEW022 OVC039 04/02 A2966 RMK
 AO2 RAE01B17E50 SLP050 P0000 60000 T00440022 53013=


NOAA's National Weather Service
Alaska Aviation Weather Unit
6930 Sand Lake Road
Anchorage, AK 99502-1845
Disclaimer
Credits
Glossary
Privacy Policy
About Us
Career Opportunities
Contact AAWU Internet Services Site last modified: April, 17th 2012